Time;durP1;ratioP1;P1;durP2;ratioP2;P2;SDS_P1;SDS_P2;PMS_P1;PMS_P2;Temp;Humidity;BMP_temperature;BMP_pressure;BME280_temperature;BME280_humidity;BME280_pressure;Samples;Min_cycle;Max_cycle;Signal;HPM_P1;HPM_P2
2022/06/10 00:01:16;;;;;;;58.70;42.33;;;;;;;15.65;100.00;100642.38;1618822;87;21701;-85
2022/06/10 00:03:44;;;;;;;54.67;41.50;;;;;;;15.61;100.00;100641.01;1618153;88;21076;-85
2022/06/10 00:06:13;;;;;;;58.45;42.48;;;;;;;15.56;100.00;100644.57;1618381;87;21188;-85
2022/06/10 00:08:44;;;;;;;59.77;40.83;;;;;;;15.49;100.00;100648.26;1617943;87;21040;-85
2022/06/10 00:11:13;;;;;;;58.98;41.08;;;;;;;15.41;100.00;100648.16;1618487;87;21510;-85
2022/06/10 00:13:44;;;;;;;61.40;42.25;;;;;;;15.30;100.00;100652.62;1618313;87;21064;-89
2022/06/10 00:16:14;;;;;;;60.83;40.67;;;;;;;15.22;100.00;100657.77;1617790;87;21108;-85
2022/06/10 00:18:41;;;;;;;56.42;41.55;;;;;;;15.16;100.00;100658.85;1657033;86;21116;-88
2022/06/10 00:21:12;;;;;;;64.72;42.95;;;;;;;15.08;100.00;100655.16;1657019;86;21141;-85
2022/06/10 00:23:40;;;;;;;58.80;40.98;;;;;;;15.03;100.00;100660.48;1657408;86;21548;-85
2022/06/10 00:26:09;;;;;;;57.38;40.80;;;;;;;14.97;100.00;100656.63;1656699;86;21065;-85
2022/06/10 00:28:37;;;;;;;55.95;40.28;;;;;;;14.93;100.00;100663.14;1656940;86;21105;-85
2022/06/10 00:31:05;;;;;;;59.65;42.60;;;;;;;14.90;100.00;100660.80;1657083;86;21074;-85
2022/06/10 00:33:34;;;;;;;54.08;39.40;;;;;;;14.87;100.00;100659.76;1657408;86;21113;-85
2022/06/10 00:36:03;;;;;;;56.05;40.78;;;;;;;14.82;100.00;100659.72;1653325;86;21002;-85
2022/06/10 00:38:31;;;;;;;65.92;42.83;;;;;;;14.82;100.00;100666.77;1657140;86;21010;-85
2022/06/10 00:40:59;;;;;;;63.65;43.75;;;;;;;14.79;100.00;100663.92;1657005;86;21085;-85
2022/06/10 00:43:31;;;;;;;62.40;44.18;;;;;;;14.78;100.00;100674.06;1657013;86;21159;-85
2022/06/10 00:46:34;;;;;;;65.45;44.08;;;;;;;14.74;100.00;100670.58;1652463;86;21022;-85
2022/06/10 00:49:10;;;;;;;59.70;42.48;;;;;;;14.73;100.00;100676.78;1657016;86;21082;-84
2022/06/10 00:51:45;;;;;;;58.78;42.90;;;;;;;14.74;100.00;100679.25;1657090;86;21104;-88
2022/06/10 00:54:26;;;;;;;59.85;42.60;;;;;;;14.73;100.00;100678.09;1651594;86;21556;-84
2022/06/10 00:57:13;;;;;;;;;;;;;;;14.69;100.00;100680.64;1652891;87;21134;-85
2022/06/10 00:59:51;;;;;;;70.55;46.15;;;;;;;14.67;100.00;100681.60;1633230;87;20198;-91
2022/06/10 01:02:23;;;;;;;67.25;44.58;;;;;;;14.66;100.00;100684.37;1648482;87;21529;-85
2022/06/10 01:04:54;;;;;;;70.62;48.42;;;;;;;14.64;100.00;100685.80;1604245;88;21038;-85
2022/06/10 01:07:28;;;;;;;70.03;49.97;;;;;;;14.68;100.00;100681.14;1612109;89;21736;-85
2022/06/10 01:09:56;;;;;;;63.00;44.10;;;;;;;14.69;100.00;100680.17;1585040;89;21253;-85
2022/06/10 01:13:17;;;;;;;61.63;42.53;;;;;;;14.69;100.00;100679.33;1604230;88;21022;-85
2022/06/10 01:16:02;;;;;;;55.88;40.38;;;;;;;14.73;100.00;100683.34;1611483;88;21034;-85
2022/06/10 01:19:03;;;;;;;57.80;39.63;;;;;;;14.78;100.00;100688.97;1636766;86;21113;-86
2022/06/10 01:21:59;;;;;;;55.78;41.58;;;;;;;14.81;100.00;100688.70;1611086;88;21040;-84
2022/06/10 01:24:59;;;;;;;59.42;41.68;;;;;;;14.85;100.00;100691.86;1611579;88;21188;-85
2022/06/10 01:27:50;;;;;;;51.23;39.38;;;;;;;14.87;100.00;100693.84;1611823;88;21612;-86
2022/06/10 01:30:47;;;;;;;;;;;;;;;14.88;100.00;100695.03;1613824;88;21049;-85
2022/06/10 01:33:43;;;;;;;52.67;37.48;;;;;;;14.88;100.00;100695.03;1611828;88;20688;-85
2022/06/10 01:36:49;;;;;;;49.60;36.35;;;;;;;14.88;100.00;100702.05;1611509;88;21661;-85
2022/06/10 01:39:21;;;;;;;50.28;36.85;;;;;;;14.86;100.00;100701.39;1611604;88;21947;-86
2022/06/10 01:42:10;;;;;;;49.23;35.63;;;;;;;14.83;100.00;100698.08;1611359;88;21199;-85
2022/06/10 01:44:58;;;;;;;47.83;34.67;;;;;;;14.85;100.00;100698.42;1608199;88;21029;-84
2022/06/10 01:47:49;;;;;;;48.30;33.38;;;;;;;14.84;100.00;100698.89;1611058;88;21092;-90
2022/06/10 01:50:21;;;;;;;44.27;32.00;;;;;;;14.82;100.00;100701.66;1609630;88;21586;-85
2022/06/10 01:53:03;;;;;;;44.20;31.05;;;;;;;14.79;100.00;100707.17;1610324;88;21550;-85
2022/06/10 01:55:47;;;;;;;43.33;31.95;;;;;;;14.73;100.00;100701.19;1598612;88;21445;-84
2022/06/10 01:58:27;;;;;;;40.35;31.40;;;;;;;14.64;100.00;100707.23;1597391;88;21101;-85
2022/06/10 02:00:59;;;;;;;43.00;30.72;;;;;;;14.57;100.00;100707.45;1597309;88;21064;-84
2022/06/10 02:03:57;;;;;;;39.10;29.82;;;;;;;14.53;100.00;100704.78;1596873;88;21176;-85
2022/06/10 02:06:43;;;;;;;40.83;29.80;;;;;;;14.48;100.00;100704.69;1598020;89;21085;-85
2022/06/10 02:09:15;;;;;;;43.73;29.80;;;;;;;14.42;100.00;100714.42;1597047;88;21452;-84
2022/06/10 02:11:47;;;;;;;47.43;30.40;;;;;;;14.36;100.00;100713.17;1596475;89;21118;-85
2022/06/10 02:14:23;;;;;;;40.90;30.08;;;;;;;14.33;100.00;100713.47;1591393;89;21157;-85
2022/06/10 02:16:51;;;;;;;42.85;31.25;;;;;;;14.28;100.00;100709.60;1596056;88;21124;-85
2022/06/10 02:19:32;;;;;;;42.62;30.10;;;;;;;14.23;100.00;100714.41;1593166;89;21187;-84
2022/06/10 02:22:10;;;;;;;39.35;28.55;;;;;;;14.17;100.00;100716.61;1596050;89;21121;-84
2022/06/10 02:24:57;;;;;;;40.43;27.87;;;;;;;14.15;100.00;100715.92;1592456;89;21544;-85
2022/06/10 02:27:30;;;;;;;37.67;27.13;;;;;;;14.19;100.00;100720.40;1597688;88;21531;-84
2022/06/10 02:30:14;;;;;;;37.60;27.40;;;;;;;14.26;100.00;100720.20;1592672;89;21724;-84
2022/06/10 02:32:43;;;;;;;35.05;27.30;;;;;;;14.36;100.00;100724.15;1596311;88;21852;-84
2022/06/10 02:35:13;;;;;;;41.05;28.27;;;;;;;14.46;100.00;100726.77;1571806;90;21081;-84
2022/06/10 02:37:54;;;;;;;38.53;27.73;;;;;;;14.53;100.00;100723.12;1593095;90;21075;-89
2022/06/10 02:40:33;;;;;;;41.68;27.30;;;;;;;14.55;100.00;100722.01;1597104;89;21049;-84
2022/06/10 02:43:29;;;;;;;41.75;28.02;;;;;;;14.58;100.00;100728.27;1591217;89;21050;-85
2022/06/10 02:46:05;;;;;;;38.95;27.42;;;;;;;14.60;100.00;100726.34;1595995;88;21574;-84
2022/06/10 02:48:58;;;;;;;38.83;28.62;;;;;;;14.66;100.00;100732.36;1590507;89;21082;-85
2022/06/10 02:51:31;;;;;;;37.65;29.02;;;;;;;14.70;100.00;100734.25;1598547;88;21622;-86
2022/06/10 02:54:04;;;;;;;38.13;26.95;;;;;;;14.73;100.00;100735.75;1593019;89;21627;-84
2022/06/10 02:56:31;;;;;;;30.17;24.82;;;;;;;14.75;100.00;100741.20;1596189;88;21023;-84
2022/06/10 03:02:22;;;;;;;35.68;25.55;;;;;;;14.86;100.00;100738.91;1597993;88;21074;-83
2022/06/10 03:04:59;;;;;;;33.65;24.98;;;;;;;14.95;100.00;100737.22;1593166;89;21106;-86
2022/06/10 03:07:53;;;;;;;37.30;26.25;;;;;;;15.04;100.00;100740.81;1590750;89;21083;-83
2022/06/10 03:10:58;;;;;;;32.20;24.05;;;;;;;15.13;100.00;100741.27;1590658;89;21106;-83
2022/06/10 03:13:50;;;;;;;35.03;25.15;;;;;;;15.23;100.00;100742.55;1598286;88;21033;-83
2022/06/10 03:16:32;;;;;;;41.13;26.20;;;;;;;15.35;100.00;100744.52;1590980;89;21093;-83
2022/06/10 03:19:45;;;;;;;33.98;26.60;;;;;;;15.44;100.00;100743.16;1595462;87;21037;-84
2022/06/10 03:22:40;;;;;;;31.93;24.35;;;;;;;15.53;100.00;100737.55;1616140;87;21118;-83
2022/06/10 03:25:30;;;;;;;33.83;24.35;;;;;;;15.64;100.00;100736.53;1615940;87;21593;-83
2022/06/10 03:28:23;;;;;;;39.58;26.15;;;;;;;15.77;100.00;100738.81;1597947;88;21191;-84
2022/06/10 03:30:58;;;;;;;37.53;27.15;;;;;;;15.88;100.00;100736.50;1599177;89;22074;-84
2022/06/10 03:33:40;;;;;;;35.92;26.05;;;;;;;16.01;100.00;100745.34;1597465;88;21049;-84
2022/06/10 03:36:14;;;;;;;43.68;28.47;;;;;;;16.12;100.00;100741.17;1596812;88;21135;-87
2022/06/10 03:38:48;;;;;;;39.08;28.23;;;;;;;16.25;100.00;100744.75;1601273;89;21127;-83
2022/06/10 03:41:26;;;;;;;40.90;28.73;;;;;;;16.38;100.00;100742.56;1601453;89;21193;-85
2022/06/10 03:43:57;;;;;;;44.88;31.65;;;;;;;16.52;100.00;100739.09;1601112;89;21050;-83
2022/06/10 03:46:28;;;;;;;45.45;32.30;;;;;;;16.67;100.00;100742.83;1601693;89;21087;-84
2022/06/10 03:48:58;;;;;;;47.83;30.90;;;;;;;16.82;100.00;100737.86;1602382;88;21027;-83
2022/06/10 03:51:26;;;;;;;40.78;29.65;;;;;;;16.96;100.00;100732.54;1602162;88;21616;-84
2022/06/10 03:53:53;;;;;;;42.08;29.05;;;;;;;17.11;100.00;100731.96;1602334;88;21169;-83
2022/06/10 03:56:25;;;;;;;40.40;27.55;;;;;;;17.25;100.00;100731.41;1617989;87;20994;-85
2022/06/10 03:58:53;;;;;;;37.35;27.58;;;;;;;17.41;100.00;100733.28;1652201;86;21584;-87
2022/06/10 04:01:20;;;;;;;40.80;28.15;;;;;;;17.55;100.00;100733.19;1652050;86;21018;-86
2022/06/10 04:03:48;;;;;;;39.88;26.35;;;;;;;17.71;100.00;100738.99;1652073;86;21073;-84
2022/06/10 04:06:17;;;;;;;31.65;23.92;;;;;;;17.87;100.00;100738.71;1651926;86;21134;-84
2022/06/10 04:08:46;;;;;;;33.65;22.75;;;;;;;18.03;100.00;100732.70;1652026;86;21058;-84
2022/06/10 04:11:13;;;;;;;30.35;21.45;;;;;;;18.18;100.00;100739.50;1651761;86;21065;-83
2022/06/10 04:13:41;;;;;;;27.62;19.67;;;;;;;18.35;100.00;100736.38;1650745;85;21011;-83
2022/06/10 04:16:08;;;;;;;29.50;19.85;;;;;;;18.49;100.00;100738.35;1602937;89;21530;-85
2022/06/10 04:18:37;;;;;;;28.10;19.62;;;;;;;18.64;100.00;100734.58;1591929;89;21316;-83
2022/06/10 04:21:06;;;;;;;26.77;18.27;;;;;;;18.79;100.00;100742.63;1602282;87;21143;-83
2022/06/10 04:23:33;;;;;;;26.25;18.67;;;;;;;18.93;100.00;100739.03;1617387;87;21584;-83
2022/06/10 04:26:02;;;;;;;26.55;17.67;;;;;;;19.06;100.00;100737.53;1617446;87;21555;-83
2022/06/10 04:28:29;;;;;;;39.15;19.25;;;;;;;19.21;100.00;100744.23;1617237;88;21052;-84
2022/06/10 04:30:57;;;;;;;25.25;18.20;;;;;;;19.33;100.00;100744.70;1617471;87;21270;-84
2022/06/10 04:33:24;;;;;;;27.15;18.12;;;;;;;19.46;100.00;100745.48;1617488;87;21044;-84
2022/06/10 04:35:52;;;;;;;26.70;16.65;;;;;;;19.61;100.00;100751.36;1617432;87;21455;-84
2022/06/10 04:38:22;;;;;;;26.95;17.80;;;;;;;19.74;100.00;100750.33;1617228;87;21665;-83
2022/06/10 04:40:49;;;;;;;27.15;17.48;;;;;;;19.85;100.00;100751.28;1617223;87;21673;-83
2022/06/10 04:43:18;;;;;;;25.80;17.45;;;;;;;20.01;100.00;100756.15;1617384;87;21198;-83
2022/06/10 04:45:50;;;;;;;23.40;16.82;;;;;;;20.14;100.00;100757.73;1617282;87;21545;-83
2022/06/10 04:48:18;;;;;;;26.27;16.90;;;;;;;20.26;100.00;100750.70;1614716;87;21052;-83
2022/06/10 04:50:47;;;;;;;47.23;18.10;;;;;;;20.37;100.00;100756.08;1617375;87;21080;-84
2022/06/10 04:53:14;;;;;;;26.80;17.73;;;;;;;20.46;100.00;100754.55;1617389;87;21527;-85
2022/06/10 04:55:43;;;;;;;22.87;16.25;;;;;;;20.58;100.00;100756.75;1609746;88;21093;-84
2022/06/10 04:58:12;;;;;;;23.25;16.93;;;;;;;20.71;100.00;100755.63;1601247;88;21639;-84
2022/06/10 05:00:45;;;;;;;38.00;17.67;;;;;;;20.82;100.00;100756.24;1600608;88;21102;-83
2022/06/10 05:03:13;;;;;;;25.30;16.82;;;;;;;20.92;100.00;100760.27;1577733;89;21354;-83
2022/06/10 05:05:40;;;;;;;24.82;16.73;;;;;;;21.05;100.00;100760.17;1577605;89;21112;-85
2022/06/10 05:08:13;;;;;;;23.02;15.23;;;;;;;21.21;100.00;100765.78;1577508;89;21713;-84
2022/06/10 05:10:42;;;;;;;24.72;15.03;;;;;;;21.36;100.00;100765.80;1585405;88;21197;-84
2022/06/10 05:13:09;;;;;;;21.37;15.80;;;;;;;21.51;100.00;100759.17;1599354;88;21073;-84
2022/06/10 05:15:36;;;;;;;22.65;16.02;;;;;;;21.63;100.00;100764.34;1613088;87;21136;-84
2022/06/10 05:18:06;;;;;;;31.62;16.55;;;;;;;21.75;100.00;100764.69;1633594;86;21051;-84
2022/06/10 05:20:40;;;;;;;24.70;14.47;;;;;;;21.84;100.00;100763.58;1614462;87;21987;-84
2022/06/10 05:23:09;;;;;;;20.70;14.13;;;;;;;21.95;100.00;100760.94;1601612;88;21639;-83
2022/06/10 05:25:36;;;;;;;21.12;14.87;;;;;;;22.06;100.00;100760.95;1606713;88;21131;-84
2022/06/10 05:28:06;;;;;;;20.45;13.85;;;;;;;22.17;100.00;100760.95;1580086;89;21033;-84
2022/06/10 05:30:35;;;;;;;16.97;13.18;;;;;;;22.27;100.00;100761.99;1601720;89;21486;-86
2022/06/10 05:33:04;;;;;;;18.62;13.95;;;;;;;22.38;100.00;100766.77;1606657;88;21239;-84
2022/06/10 05:35:32;;;;;;;21.73;13.45;;;;;;;22.48;100.00;100767.80;1588101;88;21053;-83
2022/06/10 05:38:01;;;;;;;19.90;12.80;;;;;;;22.59;100.00;100767.30;1618536;87;21174;-84
2022/06/10 05:40:31;;;;;;;17.60;13.93;;;;;;;22.71;95.14;100767.60;1602571;88;21052;-83
2022/06/10 05:43:00;;;;;;;19.12;12.40;;;;;;;22.84;100.00;100765.55;1602523;88;21041;-83
2022/06/10 05:45:27;;;;;;;18.95;12.23;;;;;;;22.98;99.18;100764.63;1602565;88;21135;-84
2022/06/10 05:48:00;;;;;;;37.90;13.18;;;;;;;23.12;97.44;100760.23;1602660;88;21116;-85
2022/06/10 05:50:39;;;;;;;19.45;12.80;;;;;;;23.22;95.21;100764.41;1602371;88;21097;-84
2022/06/10 05:53:10;;;;;;;18.10;11.63;;;;;;;23.34;91.49;100762.02;1601981;87;21598;-83
2022/06/10 05:55:39;;;;;;;16.07;10.95;;;;;;;23.47;95.04;100754.11;1601316;88;21056;-85
2022/06/10 05:58:07;;;;;;;18.52;10.82;;;;;;;23.65;97.25;100758.07;1595293;89;21128;-84
2022/06/10 06:00:35;;;;;;;16.75;11.22;;;;;;;23.81;92.26;100760.88;1584066;89;21043;-83
2022/06/10 06:03:03;;;;;;;14.35;11.28;;;;;;;23.92;82.56;100765.10;1578036;91;21095;-83
2022/06/10 06:05:31;;;;;;;13.32;10.58;;;;;;;24.05;83.80;100762.22;1578152;91;21064;-84
2022/06/10 06:07:58;;;;;;;16.27;11.35;;;;;;;24.16;83.47;100758.14;1578136;91;21482;-84
2022/06/10 06:10:28;;;;;;;17.80;10.45;;;;;;;24.29;87.98;100758.15;1578170;91;21192;-83
2022/06/10 06:12:57;;;;;;;;;;;;;;;24.44;84.50;100759.83;1580265;91;21075;-84
2022/06/10 06:15:25;;;;;;;18.80;10.08;;;;;;;24.58;80.37;100753.47;1578286;91;20161;-84
2022/06/10 06:17:54;;;;;;;11.22;9.13;;;;;;;24.72;79.76;100750.30;1578102;91;21145;-84
2022/06/10 06:20:23;;;;;;;12.40;9.18;;;;;;;24.85;78.43;100751.64;1600058;88;21074;-84
2022/06/10 06:22:52;;;;;;;16.82;8.48;;;;;;;25.01;77.12;100754.36;1647862;86;21164;-83
2022/06/10 06:25:20;;;;;;;18.42;9.05;;;;;;;25.14;75.00;100753.52;1617944;87;21085;-87
2022/06/10 06:27:49;;;;;;;12.20;8.33;;;;;;;25.24;66.01;100751.74;1622771;88;21116;-83
2022/06/10 06:30:26;;;;;;;11.03;7.12;;;;;;;25.33;69.31;100753.68;1640875;86;21070;-83
2022/06/10 06:32:52;;;;;;;9.88;6.58;;;;;;;25.42;69.35;100751.12;1598768;89;21117;-87
2022/06/10 06:35:20;;;;;;;10.45;6.85;;;;;;;25.53;65.63;100738.14;1597002;88;21823;-87
2022/06/10 06:37:47;;;;;;;8.43;6.12;;;;;;;25.65;63.62;100738.59;1635569;86;21061;-86
2022/06/10 06:40:15;;;;;;;9.03;5.80;;;;;;;25.76;61.29;100734.97;1635985;87;21106;-85
2022/06/10 06:42:47;;;;;;;17.93;6.73;;;;;;;25.88;60.71;100736.44;1633227;86;21587;-83
2022/06/10 06:45:17;;;;;;;13.43;6.58;;;;;;;25.97;56.26;100738.63;1636049;86;21026;-83
2022/06/10 06:47:47;;;;;;;8.78;5.42;;;;;;;26.06;54.15;100744.54;1633178;87;21122;-86
2022/06/10 06:50:18;;;;;;;8.40;5.25;;;;;;;26.13;53.20;100741.34;1633920;86;21069;-84
2022/06/10 06:52:45;;;;;;;7.45;4.70;;;;;;;26.23;54.53;100739.52;1632231;87;21014;-85
2022/06/10 06:55:12;;;;;;;6.30;5.10;;;;;;;26.36;56.17;100738.60;1630708;87;21034;-84
2022/06/10 06:57:41;;;;;;;6.78;4.90;;;;;;;26.45;53.83;100737.30;1602557;88;21006;-83
2022/06/10 07:00:11;;;;;;;9.65;5.25;;;;;;;26.56;52.62;100742.44;1602899;88;22383;-84
2022/06/10 07:02:38;;;;;;;8.03;4.70;;;;;;;26.66;52.02;100741.94;1604665;88;21098;-84
2022/06/10 07:05:07;;;;;;;7.72;4.80;;;;;;;26.75;51.11;100736.61;1635352;87;21038;-84
2022/06/10 07:07:34;;;;;;;5.90;4.22;;;;;;;26.86;50.67;100744.98;1639814;86;21607;-84
2022/06/10 07:10:04;;;;;;;9.53;4.50;;;;;;;26.92;50.43;100740.88;1604888;87;21121;-83
2022/06/10 07:12:32;;;;;;;5.92;4.20;;;;;;;26.98;51.22;100735.72;1612682;87;22439;-83
2022/06/10 07:14:59;;;;;;;5.85;3.80;;;;;;;27.04;48.15;100744.98;1609371;86;21044;-84
2022/06/10 07:17:27;;;;;;;6.10;4.12;;;;;;;27.10;49.04;100739.80;1603595;88;21093;-88
2022/06/10 07:19:58;;;;;;;6.60;4.22;;;;;;;27.15;49.10;100741.27;1616700;87;21066;-84
2022/06/10 07:22:23;;;;;;;9.58;3.85;;;;;;;27.21;45.72;100739.04;1613428;88;21083;-83
2022/06/10 07:24:50;;;;;;;9.48;4.40;;;;;;;27.29;48.15;100740.61;1602964;86;21157;-84
2022/06/10 07:27:17;;;;;;;9.83;4.35;;;;;;;27.39;47.15;100739.57;1602387;88;21562;-84
2022/06/10 07:29:45;;;;;;;10.23;4.67;;;;;;;27.47;45.80;100746.48;1593502;88;21115;-84
2022/06/10 07:32:12;;;;;;;5.22;4.25;;;;;;;27.54;46.38;100736.52;1597720;88;21575;-84
2022/06/10 07:34:41;;;;;;;7.53;4.08;;;;;;;27.63;46.78;100733.83;1577558;90;21159;-83
2022/06/10 07:37:09;;;;;;;6.05;4.00;;;;;;;27.70;44.13;100743.11;1593287;89;21194;-84
2022/06/10 07:39:36;;;;;;;7.12;4.00;;;;;;;27.75;42.77;100742.43;1577348;89;21053;-84
2022/06/10 07:42:04;;;;;;;11.70;4.53;;;;;;;27.78;40.76;100741.96;1592995;89;21125;-84
2022/06/10 07:44:36;;;;;;;5.80;3.75;;;;;;;27.80;41.57;100746.03;1577077;89;21062;-83
2022/06/10 07:47:11;;;;;;;5.62;3.95;;;;;;;27.83;41.61;100746.13;1593120;89;21145;-84
2022/06/10 07:49:39;;;;;;;7.65;4.35;;;;;;;27.88;41.74;100742.23;1592539;89;21131;-84
2022/06/10 07:52:07;;;;;;;6.25;4.50;;;;;;;27.95;42.97;100740.28;1601450;89;21030;-84
2022/06/10 07:54:35;;;;;;;9.05;4.20;;;;;;;28.02;41.55;100745.00;1602953;88;21160;-84
2022/06/10 07:57:05;;;;;;;6.53;4.00;;;;;;;28.11;41.13;100744.71;1603006;89;21082;-84
2022/06/10 07:59:33;;;;;;;;;;;;;;;28.16;41.95;100743.52;1604033;88;21097;-85
2022/06/10 08:02:04;;;;;;;3.17;2.60;;;;;;;28.23;44.41;100743.39;1601925;88;21181;-85
2022/06/10 08:04:31;;;;;;;5.15;3.00;;;;;;;28.32;43.57;100732.65;1601617;89;21604;-84
2022/06/10 08:06:58;;;;;;;7.40;3.47;;;;;;;28.38;41.67;100740.28;1602010;88;21054;-83
2022/06/10 08:09:26;;;;;;;4.85;3.22;;;;;;;28.43;39.64;100741.23;1601994;88;21721;-85
2022/06/10 08:11:54;;;;;;;5.40;3.50;;;;;;;28.45;41.72;100734.30;1601921;88;21120;-84
2022/06/10 08:14:21;;;;;;;9.45;3.33;;;;;;;28.45;39.85;100740.98;1601820;88;21144;-84
2022/06/10 08:16:50;;;;;;;13.53;4.12;;;;;;;28.47;40.82;100736.22;1601804;88;21082;-89
2022/06/10 08:19:19;;;;;;;5.72;3.70;;;;;;;28.49;40.59;100731.42;1601959;88;21161;-84
2022/06/10 08:24:32;;;;;;;6.40;3.55;;;;;;;28.65;38.29;100735.29;1603669;88;21062;-86
2022/06/10 08:26:59;;;;;;;7.03;3.62;;;;;;;28.68;41.78;100725.96;1610024;88;21123;-85
2022/06/10 08:29:27;;;;;;;5.35;3.22;;;;;;;28.72;39.29;100736.01;1592858;88;21131;-84
2022/06/10 08:31:54;;;;;;;11.28;3.90;;;;;;;28.76;38.17;100739.03;1580241;89;21596;-84
2022/06/10 08:34:22;;;;;;;9.95;3.30;;;;;;;28.80;41.49;100736.20;1619638;88;21119;-84
2022/06/10 08:36:50;;;;;;;3.60;3.10;;;;;;;28.91;42.59;100738.57;1624326;88;21561;-84
2022/06/10 08:39:18;;;;;;;2.87;2.67;;;;;;;29.03;40.59;100738.55;1623931;88;21231;-84
2022/06/10 08:42:26;;;;;;;9.00;2.90;;;;;;;29.12;39.72;100739.82;1612603;88;21172;-86
2022/06/10 08:44:59;;;;;;;3.55;2.67;;;;;;;29.16;37.73;100738.28;1650109;86;21661;-86
2022/06/10 08:48:05;;;;;;;2.55;2.35;;;;;;;29.17;41.66;100731.04;1647278;86;21534;-87
2022/06/10 08:51:15;;;;;;;6.00;2.50;;;;;;;29.26;42.33;100729.63;1650418;85;20969;-83
2022/06/10 08:54:19;;;;;;;5.53;2.30;;;;;;;29.38;40.57;100730.45;1615264;87;21118;-84
2022/06/10 08:56:50;;;;;;;2.30;2.10;;;;;;;29.48;38.81;100739.75;1605520;88;21154;-84
2022/06/10 08:59:37;;;;;;;5.95;2.22;;;;;;;29.53;40.35;100737.95;1591007;89;21082;-85
2022/06/10 09:02:11;;;;;;;7.25;2.90;;;;;;;29.57;38.97;100741.80;1580031;89;21155;-85
2022/06/10 09:04:55;;;;;;;3.92;2.35;;;;;;;29.58;36.04;100743.95;1607617;88;21040;-85
2022/06/10 09:07:39;;;;;;;5.08;2.22;;;;;;;29.59;36.46;100745.06;1635596;87;21145;-84
2022/06/10 09:10:20;;;;;;;5.33;2.10;;;;;;;29.59;37.76;100741.55;1596699;88;21092;-83
2022/06/10 09:13:19;;;;;;;4.75;2.37;;;;;;;29.66;39.30;100744.10;1578429;89;21113;-83
2022/06/10 09:15:58;;;;;;;4.15;2.30;;;;;;;29.73;38.65;100734.84;1598886;88;21207;-83
2022/06/10 09:18:43;;;;;;;3.22;2.17;;;;;;;29.86;38.48;100731.05;1594717;87;21138;-88
2022/06/10 09:21:43;;;;;;;17.98;2.83;;;;;;;29.95;35.94;100732.84;1606153;88;21184;-83
2022/06/10 09:24:33;;;;;;;9.98;2.62;;;;;;;29.94;37.03;100725.02;1596424;88;21086;-84
2022/06/10 09:27:15;;;;;;;8.47;2.80;;;;;;;29.94;36.70;100730.39;1600873;88;21157;-85
2022/06/10 09:29:43;;;;;;;6.75;2.00;;;;;;;29.96;36.08;100719.72;1618254;87;21085;-88
2022/06/10 09:32:22;;;;;;;7.83;1.95;;;;;;;30.01;36.08;100729.19;1607682;87;21561;-84
2022/06/10 09:35:12;;;;;;;7.10;2.10;;;;;;;30.05;36.18;100733.55;1579319;88;21346;-84
2022/06/10 09:38:04;;;;;;;2.35;2.12;;;;;;;30.10;35.15;100728.79;1597662;87;21085;-90
2022/06/10 09:41:02;;;;;;;3.02;2.15;;;;;;;30.12;33.79;100728.03;1609333;88;21029;-84
2022/06/10 09:43:53;;;;;;;2.60;1.52;;;;;;;30.12;34.15;100729.38;1598280;88;21531;-83
2022/06/10 09:46:58;;;;;;;6.65;2.12;;;;;;;30.16;34.11;100721.09;1590928;88;21133;-84
2022/06/10 09:49:29;;;;;;;2.50;1.70;;;;;;;30.21;34.51;100724.69;1617482;88;21176;-85
2022/06/10 09:52:29;;;;;;;2.20;2.00;;;;;;;30.28;37.86;100719.16;1591970;89;21059;-84
2022/06/10 09:55:31;;;;;;;6.97;1.60;;;;;;;30.38;37.73;100713.92;1579152;90;21062;-83
2022/06/10 09:58:34;;;;;;;3.35;1.70;;;;;;;30.53;36.19;100723.29;1663154;85;21117;-91
2022/06/10 10:01:26;;;;;;;1.82;1.72;;;;;;;30.62;34.93;100722.36;1659472;85;21472;-85
2022/06/10 10:04:02;;;;;;;4.45;1.65;;;;;;;30.65;33.22;100723.19;1606955;87;21165;-85
2022/06/10 10:06:57;;;;;;;7.12;2.00;;;;;;;30.67;35.73;100724.59;1603223;87;21081;-83
2022/06/10 10:10:08;;;;;;;1.98;1.60;;;;;;;30.78;35.92;100726.89;1598331;88;21110;-85
2022/06/10 10:13:32;;;;;;;9.28;1.90;;;;;;;30.89;32.76;100723.00;1574969;89;21065;-84
2022/06/10 10:16:17;;;;;;;3.25;1.90;;;;;;;30.91;32.75;100718.99;1602696;88;21086;-84
2022/06/10 10:19:15;;;;;;;2.05;1.85;;;;;;;30.95;32.83;100722.80;1573855;89;21210;-84
2022/06/10 10:21:53;;;;;;;6.00;1.92;;;;;;;30.97;32.59;100713.95;1583266;89;21041;-84
2022/06/10 10:24:25;;;;;;;2.60;1.77;;;;;;;31.05;35.38;100718.06;1566988;89;21460;-84
2022/06/10 10:26:54;;;;;;;4.12;2.00;;;;;;;31.12;32.14;100716.06;1616007;86;21041;-84
2022/06/10 10:29:26;;;;;;;1.92;1.60;;;;;;;31.11;30.79;100718.47;1610867;87;21073;-84
2022/06/10 10:32:14;;;;;;;5.58;2.08;;;;;;;31.04;31.84;100716.98;1600147;88;21097;-84
2022/06/10 10:34:47;;;;;;;3.60;1.87;;;;;;;31.06;32.64;100719.70;1594730;89;21104;-84
2022/06/10 10:37:29;;;;;;;6.40;2.05;;;;;;;31.15;32.02;100710.70;1642270;85;21045;-85
2022/06/10 10:40:07;;;;;;;9.00;2.37;;;;;;;31.23;31.60;100716.16;1598138;89;21117;-85
2022/06/10 10:42:39;;;;;;;4.08;2.80;;;;;;;31.20;31.42;100712.65;1594078;88;21138;-84
2022/06/10 10:45:21;;;;;;;4.08;2.25;;;;;;;31.18;32.38;100716.91;1643526;85;21239;-84
2022/06/10 10:47:56;;;;;;;3.05;1.80;;;;;;;31.17;33.41;100712.59;1638154;86;21114;-85
2022/06/10 10:50:36;;;;;;;5.60;1.70;;;;;;;31.18;30.70;100713.42;1626464;87;20982;-84
2022/06/10 10:53:09;;;;;;;2.17;1.67;;;;;;;31.13;31.04;100705.56;1599697;88;21620;-84
2022/06/10 10:55:38;;;;;;;4.03;1.90;;;;;;;31.20;31.43;100703.23;1612378;87;21590;-86
2022/06/10 10:58:34;;;;;;;5.25;2.40;;;;;;;31.34;33.75;100703.12;1624552;88;21600;-85
2022/06/10 11:01:43;;;;;;;5.35;2.00;;;;;;;31.47;31.03;100705.40;1609601;87;21587;-88
2022/06/10 11:03:51;;;;;;;2.95;1.67;;;;;;;31.54;30.32;100707.06;1603314;86;21086;-84
2022/06/10 11:06:27;;;;;;;1.75;1.60;;;;;;;31.56;29.04;100701.73;1647377;86;21073;-84
2022/06/10 11:09:23;;;;;;;2.77;1.90;;;;;;;31.63;32.65;100694.78;1600517;89;21121;-84
2022/06/10 11:11:54;;;;;;;18.90;2.67;;;;;;;31.70;30.43;100701.34;1641026;85;21968;-85
2022/06/10 11:14:37;;;;;;;1.90;1.70;;;;;;;31.77;32.53;100692.52;1643022;86;21054;-86
2022/06/10 11:17:15;;;;;;;4.53;1.60;;;;;;;31.80;29.33;100689.34;1653544;85;21041;-85
2022/06/10 11:19:56;;;;;;;4.12;1.98;;;;;;;31.81;29.31;100684.75;1641535;86;21001;-85
2022/06/10 11:22:29;;;;;;;2.30;1.37;;;;;;;31.81;29.34;100690.13;1619949;86;21526;-84
2022/06/10 11:25:17;;;;;;;5.53;1.85;;;;;;;31.73;32.25;100687.39;1647683;85;21882;-84
2022/06/10 11:28:01;;;;;;;3.80;1.72;;;;;;;31.74;29.70;100688.98;1667868;85;21005;-84
2022/06/10 11:30:44;;;;;;;14.40;1.90;;;;;;;31.73;28.79;100691.43;1653467;86;21810;-85
2022/06/10 11:33:26;;;;;;;1.80;1.50;;;;;;;31.75;30.06;100671.78;1637476;86;21574;-85
2022/06/10 11:36:13;;;;;;;4.55;2.17;;;;;;;31.81;30.98;100677.48;1637265;84;21025;-85
2022/06/10 11:39:14;;;;;;;2.77;1.85;;;;;;;31.86;30.52;100674.84;1650307;86;21121;-85
2022/06/10 11:41:41;;;;;;;4.95;1.72;;;;;;;31.91;28.30;100674.08;1643376;86;21032;-85
2022/06/10 11:44:20;;;;;;;6.45;1.80;;;;;;;31.89;30.40;100672.17;1636019;85;21036;-86
2022/06/10 11:47:08;;;;;;;3.40;2.00;;;;;;;31.89;27.33;100673.52;1635980;86;21565;-85
2022/06/10 11:49:44;;;;;;;6.60;1.70;;;;;;;31.86;28.96;100670.81;1648477;86;21077;-85
2022/06/10 11:52:34;;;;;;;8.35;2.00;;;;;;;31.98;28.32;100678.70;1624116;86;21179;-84
2022/06/10 11:55:15;;;;;;;4.67;1.67;;;;;;;32.04;29.25;100670.14;1650678;85;21061;-84
2022/06/10 12:00:50;;;;;;;2.47;1.77;;;;;;;32.18;28.95;100674.00;1614316;88;21034;-85
2022/06/10 12:03:47;;;;;;;1.72;1.57;;;;;;;32.15;28.06;100662.94;1620360;86;21093;-87
2022/06/10 12:06:31;;;;;;;4.00;1.77;;;;;;;32.08;28.51;100669.88;1654124;85;21129;-86